Time;durP1;ratioP1;P1;durP2;ratioP2;P2;SDS_P1;SDS_P2;PMS_P1;PMS_P2;Temp;Humidity;BMP_temperature;BMP_pressure;BME280_temperature;BME280_humidity;BME280_pressure;Samples;Min_cycle;Max_cycle;Signal;HPM_P1;HPM_P2
2022/01/15 00:00:24;;;;;;;;;;;;;;;14.92;61.45;102986.56;1054476;28;1824;-62
2022/01/15 00:01:14;;;;;;;;;;;;;;;14.93;61.27;102982.94;1055190;28;708;-62
2022/01/15 00:02:04;;;;;;;;;;;;;;;14.92;61.30;102980.31;1053170;28;1068;-62
2022/01/15 00:02:55;;;;;;;;;;;;;;;14.93;61.43;102985.63;1053348;28;740;-62
2022/01/15 00:03:45;;;;;;;;;;;;;;;14.92;61.05;102983.00;1054282;28;685;-62
2022/01/15 00:04:36;;;;;;;;;;;;;;;14.91;60.99;102979.44;1053227;28;739;-62
2022/01/15 00:05:26;;;;;;;;;;;;;;;14.90;60.76;102983.06;1055125;28;744;-62
2022/01/15 00:06:17;;;;;;;;;;;;;;;14.91;60.91;102975.88;1053851;28;719;-62
2022/01/15 00:07:07;;;;;;;;;;;;;;;14.92;61.40;102972.25;1055039;28;770;-62
2022/01/15 00:07:57;;;;;;;;;;;;;;;14.92;61.16;102975.81;1054021;28;552;-62
2022/01/15 00:08:48;;;;;;;;;;;;;;;14.91;60.72;102976.75;1053851;28;920;-61
2022/01/15 00:09:39;;;;;;;;;;;;;;;14.92;61.16;102970.44;1054388;28;736;-61
2022/01/15 00:10:30;;;;;;;;;;;;;;;14.92;60.82;102980.31;1053930;28;784;-61
2022/01/15 00:11:20;;;;;;;;;;;;;;;14.92;60.61;102966.91;1053364;28;752;-61
2022/01/15 00:12:11;;;;;;;;;;;;;;;14.92;60.55;102973.13;1053227;28;751;-61
2022/01/15 00:13:02;;;;;;;;;;;;;;;14.91;61.13;102974.06;1053858;28;806;-61
2022/01/15 00:13:57;;;;;;;;;;;;;;;14.90;61.47;102966.09;1053998;28;700;-61
2022/01/15 00:14:47;;;;;;;;;;;;;;;14.90;60.70;102961.59;1053975;28;648;-61
2022/01/15 00:15:43;;;;;;;;;;;;;;;14.89;61.17;102962.53;1053784;28;699;-61
2022/01/15 00:16:45;;;;;;;;;;;;;;;14.90;61.09;102964.28;1053882;28;699;-61
2022/01/15 00:17:48;;;;;;;;;;;;;;;14.91;60.94;102963.34;1054343;28;1811;-61
2022/01/15 00:19:44;;;;;;;;;;;;;;;14.88;61.45;102960.78;1058312;28;1976;-61
2022/01/15 00:20:34;;;;;;;;;;;;;;;14.89;60.80;102961.66;1058065;28;698;-61
2022/01/15 00:21:26;;;;;;;;;;;;;;;14.88;61.20;102947.38;1057795;28;800;-61
2022/01/15 00:22:16;;;;;;;;;;;;;;;14.89;60.81;102959.84;1058140;28;812;-61
2022/01/15 00:23:07;;;;;;;;;;;;;;;14.89;60.96;102954.50;1057422;28;705;-61
2022/01/15 00:23:57;;;;;;;;;;;;;;;14.89;60.84;102954.50;1057983;28;708;-61
2022/01/15 00:24:47;;;;;;;;;;;;;;;14.90;61.01;102961.59;1058584;28;668;-61
2022/01/15 00:25:38;;;;;;;;;;;;;;;14.89;60.96;102949.13;1057344;28;748;-61
2022/01/15 00:26:28;;;;;;;;;;;;;;;14.88;61.55;102957.25;1057004;28;784;-61
2022/01/15 00:27:19;;;;;;;;;;;;;;;14.88;61.16;102952.75;1057946;28;729;-61
2022/01/15 00:28:09;;;;;;;;;;;;;;;14.88;61.46;102954.56;1059191;27;695;-61
2022/01/15 00:28:59;;;;;;;;;;;;;;;14.88;61.17;102947.38;1058653;28;730;-61
2022/01/15 00:29:50;;;;;;;;;;;;;;;14.89;61.39;102949.13;1057356;28;827;-61
2022/01/15 00:30:40;;;;;;;;;;;;;;;14.87;61.27;102945.63;1053523;28;728;-61
2022/01/15 00:31:32;;;;;;;;;;;;;;;14.85;60.98;102946.69;1053421;28;759;-61
2022/01/15 00:32:22;;;;;;;;;;;;;;;14.85;60.95;102950.25;1058607;28;699;-61
2022/01/15 00:33:12;;;;;;;;;;;;;;;14.86;61.41;102949.28;1058636;28;758;-61
2022/01/15 00:34:03;;;;;;;;;;;;;;;14.85;61.02;102950.25;1057324;28;855;-61
2022/01/15 00:34:53;;;;;;;;;;;;;;;14.87;60.92;102952.81;1057643;28;1837;-61
2022/01/15 00:35:44;;;;;;;;;;;;;;;14.87;61.16;102952.81;1057371;28;817;-61
2022/01/15 00:36:34;;;;;;;;;;;;;;;14.86;60.95;102951.97;1057479;28;677;-61
2022/01/15 00:37:24;;;;;;;;;;;;;;;14.87;61.35;102955.50;1058172;28;778;-61
2022/01/15 00:38:15;;;;;;;;;;;;;;;14.86;60.76;102945.75;1057944;28;860;-61
2022/01/15 00:39:06;;;;;;;;;;;;;;;14.85;60.85;102944.00;1058023;28;692;-61
2022/01/15 00:39:56;;;;;;;;;;;;;;;14.86;61.11;102951.97;1057382;28;964;-61
2022/01/15 00:40:46;;;;;;;;;;;;;;;14.83;61.09;102944.06;1058024;28;810;-62
2022/01/15 00:41:37;;;;;;;;;;;;;;;14.83;61.46;102946.75;1058037;28;1053;-61
2022/01/15 00:42:28;;;;;;;;;;;;;;;14.83;61.38;102949.44;1057830;28;1897;-62
2022/01/15 00:43:18;;;;;;;;;;;;;;;14.82;61.50;102947.69;1057708;28;1956;-62
2022/01/15 00:44:08;;;;;;;;;;;;;;;14.84;60.86;102942.25;1057994;28;840;-62
2022/01/15 00:45:01;;;;;;;;;;;;;;;14.84;61.43;102945.81;1058020;28;715;-63
2022/01/15 00:45:51;;;;;;;;;;;;;;;14.86;60.85;102948.44;1058025;28;715;-63
2022/01/15 00:46:41;;;;;;;;;;;;;;;14.85;60.93;102935.94;1054680;28;1355;-63
2022/01/15 00:47:32;;;;;;;;;;;;;;;14.85;61.07;102944.88;1054266;28;650;-63
2022/01/15 00:48:22;;;;;;;;;;;;;;;14.85;61.15;102947.56;1054276;28;788;-63
2022/01/15 00:49:13;;;;;;;;;;;;;;;14.86;61.60;102948.44;1053494;28;1290;-63
2022/01/15 00:50:03;;;;;;;;;;;;;;;14.85;61.17;102947.56;1055026;28;793;-63
2022/01/15 00:50:53;;;;;;;;;;;;;;;14.84;61.58;102945.81;1054937;28;779;-63
2022/01/15 00:51:44;;;;;;;;;;;;;;;14.84;61.42;102939.56;1055307;28;1832;-63
2022/01/15 00:52:34;;;;;;;;;;;;;;;14.84;61.61;102937.75;1054779;28;835;-63
2022/01/15 00:53:25;;;;;;;;;;;;;;;14.83;61.01;102933.34;1055012;28;731;-63
2022/01/15 00:54:15;;;;;;;;;;;;;;;14.84;61.51;102942.25;1054903;28;848;-63
2022/01/15 00:55:06;;;;;;;;;;;;;;;14.83;61.26;102933.34;1054733;28;908;-63
2022/01/15 00:55:56;;;;;;;;;;;;;;;14.83;61.13;102935.16;1054874;28;660;-63
2022/01/15 00:56:46;;;;;;;;;;;;;;;14.81;61.19;102929.84;1054795;28;817;-63
2022/01/15 00:57:37;;;;;;;;;;;;;;;14.82;60.95;102931.59;1054885;28;668;-63
2022/01/15 00:58:27;;;;;;;;;;;;;;;14.81;61.40;102931.66;1054917;28;761;-63
2022/01/15 00:59:18;;;;;;;;;;;;;;;14.80;60.97;102928.13;1054803;28;793;-63
2022/01/15 01:00:08;;;;;;;;;;;;;;;14.81;61.09;102923.63;1054206;28;1269;-63
2022/01/15 01:00:59;;;;;;;;;;;;;;;14.81;61.16;102926.31;1054813;28;878;-63
2022/01/15 01:01:49;;;;;;;;;;;;;;;14.81;61.00;102918.25;1054753;28;1025;-63
2022/01/15 01:02:40;;;;;;;;;;;;;;;14.80;61.45;102928.13;1054880;28;1969;-63
2022/01/15 01:03:30;;;;;;;;;;;;;;;14.80;61.38;102928.13;1054817;28;694;-63
2022/01/15 01:04:21;;;;;;;;;;;;;;;14.81;61.31;102928.97;1054779;28;690;-63
2022/01/15 01:05:11;;;;;;;;;;;;;;;14.82;61.29;102928.91;1054314;28;831;-63
2022/01/15 01:06:02;;;;;;;;;;;;;;;14.82;61.44;102926.22;1055466;27;705;-63
2022/01/15 01:06:52;;;;;;;;;;;;;;;14.82;61.44;102920.84;1056686;28;1902;-63
2022/01/15 01:07:43;;;;;;;;;;;;;;;14.81;60.96;102921.81;1057062;28;669;-62
2022/01/15 01:08:33;;;;;;;;;;;;;;;14.82;61.32;102920.00;1057202;28;716;-62
2022/01/15 01:09:29;;;;;;;;;;;;;;;14.80;61.45;102914.69;1057840;28;759;-62
2022/01/15 01:11:41;;;;;;;;;;;;;;;14.79;61.59;102914.75;1058886;28;804;-62
2022/01/15 01:20:48;;;;;;;;;;;;;;;14.80;61.56;102911.13;1058499;28;709;-62
2022/01/15 01:22:54;;;;;;;;;;;;;;;14.80;61.79;102914.69;1053521;28;1956;-61
2022/01/15 01:23:45;;;;;;;;;;;;;;;14.78;60.96;102907.66;1054179;28;1777;-62
2022/01/15 01:24:35;;;;;;;;;;;;;;;14.77;61.80;102906.78;1053643;28;633;-61
2022/01/15 01:25:37;;;;;;;;;;;;;;;14.79;61.01;102909.41;1054404;28;716;-62
2022/01/15 01:26:33;;;;;;;;;;;;;;;14.80;61.15;102900.41;1054240;28;760;-61
2022/01/15 01:27:40;;;;;;;;;;;;;;;14.78;61.64;102903.16;1054140;28;736;-62
2022/01/15 01:28:36;;;;;;;;;;;;;;;14.78;61.49;102903.16;1054299;28;816;-62
2022/01/15 01:30:28;;;;;;;;;;;;;;;14.78;61.13;102897.78;1054687;28;731;-62
2022/01/15 01:31:25;;;;;;;;;;;;;;;14.79;61.12;102899.53;1054182;28;673;-62
2022/01/15 01:34:16;;;;;;;;;;;;;;;14.77;61.31;102906.78;1054733;28;809;-61
2022/01/15 01:35:13;;;;;;;;;;;;;;;14.78;61.10;102902.28;1054184;28;659;-61
2022/01/15 01:36:12;;;;;;;;;;;;;;;14.78;61.17;102899.59;1054159;28;800;-62
2022/01/15 01:37:13;;;;;;;;;;;;;;;14.77;61.18;102900.56;1053022;28;1862;-62
2022/01/15 01:38:28;;;;;;;;;;;;;;;14.75;61.65;102903.31;1053639;28;660;-62
2022/01/15 01:39:21;;;;;;;;;;;;;;;14.77;61.70;102901.41;1054775;28;688;-61
2022/01/15 01:40:20;;;;;;;;;;;;;;;14.76;61.70;102897.00;1052990;28;708;-61
2022/01/15 01:41:18;;;;;;;;;;;;;;;14.75;60.99;102892.56;1054786;28;708;-62
2022/01/15 01:43:06;;;;;;;;;;;;;;;14.76;61.35;102888.06;1054575;28;850;-62
2022/01/15 01:44:00;;;;;;;;;;;;;;;14.75;61.23;102897.94;1054682;28;724;-63
2022/01/15 01:44:51;;;;;;;;;;;;;;;14.74;61.73;102890.84;1054122;28;778;-63
2022/01/15 01:45:45;;;;;;;;;;;;;;;14.74;61.58;102888.16;1055277;28;1988;-63
2022/01/15 01:46:43;;;;;;;;;;;;;;;14.73;61.22;102899.81;1053390;28;923;-63
2022/01/15 01:47:40;;;;;;;;;;;;;;;14.73;61.72;102893.59;1053409;28;639;-64
2022/01/15 01:48:31;;;;;;;;;;;;;;;14.73;61.37;102897.13;1053422;28;704;-64
2022/01/15 01:49:21;;;;;;;;;;;;;;;14.73;61.76;102894.47;1054643;28;1128;-63
2022/01/15 01:50:12;;;;;;;;;;;;;;;14.74;61.41;102895.31;1054745;28;690;-63
2022/01/15 01:51:02;;;;;;;;;;;;;;;14.74;61.31;102898.00;1054618;28;929;-62
2022/01/15 01:51:52;;;;;;;;;;;;;;;14.73;61.58;102897.13;1054075;28;648;-61
2022/01/15 01:52:43;;;;;;;;;;;;;;;14.74;61.68;102900.69;1054036;28;607;-62
2022/01/15 01:53:33;;;;;;;;;;;;;;;14.74;61.33;102896.19;1054098;28;880;-61
2022/01/15 01:54:24;;;;;;;;;;;;;;;14.74;61.43;102904.25;1054898;28;2044;-61
2022/01/15 01:55:14;;;;;;;;;;;;;;;14.73;61.16;102894.47;1052588;28;778;-61
2022/01/15 01:56:04;;;;;;;;;;;;;;;14.73;61.55;102897.13;1053935;28;637;-61
2022/01/15 01:56:55;;;;;;;;;;;;;;;14.73;61.76;102894.47;1058228;28;610;-62
2022/01/15 01:57:45;;;;;;;;;;;;;;;14.72;61.33;102898.09;1057811;28;920;-62
2022/01/15 01:58:36;;;;;;;;;;;;;;;14.72;61.19;102892.72;1057796;28;794;-62
2022/01/15 01:59:27;;;;;;;;;;;;;;;14.72;61.41;102895.41;1052522;28;803;-61
2022/01/15 02:00:18;;;;;;;;;;;;;;;14.73;61.15;102896.28;1053294;28;728;-61
2022/01/15 02:01:09;;;;;;;;;;;;;;;14.72;61.74;102892.72;1057582;28;779;-62
2022/01/15 02:01:59;;;;;;;;;;;;;;;14.71;61.51;102896.34;1056989;28;1476;-62
2022/01/15 02:02:50;;;;;;;;;;;;;;;14.72;61.18;102898.09;1055475;28;2071;-62
2022/01/15 02:03:40;;;;;;;;;;;;;;;14.71;61.24;102896.34;1054617;28;842;-61
2022/01/15 02:04:31;;;;;;;;;;;;;;;14.71;61.20;102888.28;1054630;28;777;-61
2022/01/15 02:05:21;;;;;;;;;;;;;;;14.71;61.00;102896.34;1054128;28;741;-62
2022/01/15 02:06:11;;;;;;;;;;;;;;;14.71;61.18;102887.44;1054675;28;778;-61
2022/01/15 02:07:02;;;;;;;;;;;;;;;14.71;61.48;102890.09;1054649;28;751;-61
2022/01/15 02:07:52;;;;;;;;;;;;;;;14.70;61.72;102894.59;1054661;28;1035;-61
2022/01/15 02:08:43;;;;;;;;;;;;;;;14.71;61.38;102892.78;1054621;28;859;-62
2022/01/15 02:09:33;;;;;;;;;;;;;;;14.70;61.05;102886.56;1054702;28;668;-61
2022/01/15 02:10:24;;;;;;;;;;;;;;;14.71;61.08;102882.94;1054680;28;698;-62
2022/01/15 02:11:14;;;;;;;;;;;;;;;14.72;61.63;102884.66;1054692;28;706;-61
2022/01/15 02:12:05;;;;;;;;;;;;;;;14.70;61.21;102880.31;1054116;28;1868;-61
2022/01/15 02:12:55;;;;;;;;;;;;;;;14.69;61.83;102881.28;1057096;28;670;-61
2022/01/15 02:13:45;;;;;;;;;;;;;;;14.66;61.28;102885.00;1057250;28;767;-62
2022/01/15 02:14:36;;;;;;;;;;;;;;;14.68;61.10;102880.41;1057131;28;593;-61
2022/01/15 02:15:27;;;;;;;;;;;;;;;14.69;61.75;102882.13;1057810;28;828;-61
2022/01/15 02:16:17;;;;;;;;;;;;;;;14.68;61.99;102885.78;1057004;28;955;-62
2022/01/15 02:17:08;;;;;;;;;;;;;;;14.69;61.64;102892.88;1057746;28;717;-61
2022/01/15 02:17:58;;;;;;;;;;;;;;;14.68;61.47;102885.78;1057719;28;716;-61
2022/01/15 02:18:48;;;;;;;;;;;;;;;14.68;61.63;102885.78;1057583;28;670;-62
2022/01/15 02:21:02;;;;;;;;;;;;;;;14.68;61.29;102885.78;1058246;28;680;-61
2022/01/15 02:24:10;;;;;;;;;;;;;;;14.68;61.54;102877.75;1058173;28;685;-61
2022/01/15 02:25:01;;;;;;;;;;;;;;;14.69;61.36;102871.41;1057618;28;722;-62
2022/01/15 02:25:51;;;;;;;;;;;;;;;14.68;61.71;102874.19;1057736;28;637;-61
2022/01/15 02:26:42;;;;;;;;;;;;;;;14.68;61.18;102868.81;1057729;28;848;-62
2022/01/15 02:27:32;;;;;;;;;;;;;;;14.67;61.55;102873.31;1054051;28;803;-62
2022/01/15 02:28:23;;;;;;;;;;;;;;;14.66;61.34;102871.56;1054673;28;697;-62
2022/01/15 02:29:13;;;;;;;;;;;;;;;14.66;61.17;102871.56;1054739;28;2046;-62
2022/01/15 02:30:04;;;;;;;;;;;;;;;14.66;61.29;102871.56;1054571;28;730;-62
2022/01/15 02:30:54;;;;;;;;;;;;;;;14.66;61.82;102876.94;1052807;28;873;-62
2022/01/15 02:31:44;;;;;;;;;;;;;;;14.66;61.51;102876.94;1054612;28;2029;-62
2022/01/15 02:32:36;;;;;;;;;;;;;;;14.67;61.72;102875.13;1054061;28;2004;-62
2022/01/15 02:33:26;;;;;;;;;;;;;;;14.67;60.98;102875.13;1053731;28;1893;-62
2022/01/15 02:34:16;;;;;;;;;;;;;;;14.67;61.25;102867.94;1054694;28;755;-62
2022/01/15 02:35:07;;;;;;;;;;;;;;;14.66;60.99;102871.56;1052578;28;858;-62
2022/01/15 02:35:57;;;;;;;;;;;;;;;14.66;61.36;102865.34;1054170;28;755;-62
2022/01/15 02:36:48;;;;;;;;;;;;;;;14.64;61.74;102868.09;1054063;28;798;-62
2022/01/15 02:37:38;;;;;;;;;;;;;;;14.66;61.67;102866.22;1054145;28;629;-62
2022/01/15 02:38:28;;;;;;;;;;;;;;;14.67;61.46;102861.72;1054192;28;673;-62
2022/01/15 02:39:19;;;;;;;;;;;;;;;14.66;61.50;102855.47;1054434;28;895;-62
2022/01/15 02:40:09;;;;;;;;;;;;;;;14.65;61.56;102864.47;1054062;28;697;-62
2022/01/15 02:41:00;;;;;;;;;;;;;;;14.67;61.59;102850.97;1054150;28;1019;-61
2022/01/15 02:41:50;;;;;;;;;;;;;;;14.66;61.67;102859.97;1054032;28;718;-61
2022/01/15 02:42:40;;;;;;;;;;;;;;;14.64;61.51;102854.69;1054209;28;1910;-61
2022/01/15 02:43:34;;;;;;;;;;;;;;;14.65;61.24;102850.19;1053931;28;810;-61
2022/01/15 02:44:25;;;;;;;;;;;;;;;14.65;61.52;102848.38;1054016;28;755;-61
2022/01/15 02:45:21;;;;;;;;;;;;;;;14.64;60.95;102846.63;1053953;28;804;-62
2022/01/15 02:48:36;;;;;;;;;;;;;;;14.64;61.34;102843.06;1042288;28;799;-62
2022/01/15 02:49:26;;;;;;;;;;;;;;;14.63;61.29;102828.78;1053334;28;1308;-62
2022/01/15 02:50:17;;;;;;;;;;;;;;;14.64;61.33;102827.84;1058763;28;806;-62
2022/01/15 02:51:07;;;;;;;;;;;;;;;14.63;61.43;102818.06;1057492;28;2074;-62
2022/01/15 02:51:58;;;;;;;;;;;;;;;14.64;61.54;102832.34;1057709;28;797;-61
2022/01/15 02:52:48;;;;;;;;;;;;;;;14.63;61.33;102825.22;1057686;28;697;-62
2022/01/15 02:53:39;;;;;;;;;;;;;;;14.62;61.26;102828.88;1057652;28;927;-62
2022/01/15 02:54:29;;;;;;;;;;;;;;;14.62;61.31;102824.38;1057643;28;630;-62
2022/01/15 02:55:19;;;;;;;;;;;;;;;14.63;61.74;102827.91;1057741;28;780;-62
2022/01/15 02:56:10;;;;;;;;;;;;;;;14.62;61.22;102829.72;1057169;28;793;-62
2022/01/15 02:57:04;;;;;;;;;;;;;;;14.63;61.44;102834.16;1057573;28;751;-62
2022/01/15 02:57:55;;;;;;;;;;;;;;;14.64;61.43;102835.91;1056667;28;885;-62
2022/01/15 02:58:46;;;;;;;;;;;;;;;14.65;61.10;102826.03;1056717;28;708;-62
2022/01/15 02:59:36;;;;;;;;;;;;;;;14.63;61.11;102828.78;1057014;28;692;-62
2022/01/15 03:00:27;;;;;;;;;;;;;;;14.62;61.73;102827.06;1057074;28;793;-62
2022/01/15 03:01:17;;;;;;;;;;;;;;;14.63;61.37;102822.56;1057008;28;786;-62
2022/01/15 03:02:07;;;;;;;;;;;;;;;14.62;61.05;102819.00;1057042;28;943;-62
2022/01/15 03:02:58;;;;;;;;;;;;;;;14.62;61.55;102810.09;1053232;28;661;-61
2022/01/15 03:03:48;;;;;;;;;;;;;;;14.62;61.14;102815.44;1052991;28;707;-62
2022/01/15 03:04:38;;;;;;;;;;;;;;;14.62;61.52;102804.72;1057681;28;757;-62
2022/01/15 03:05:29;;;;;;;;;;;;;;;14.62;61.45;102815.44;1057647;28;768;-62
2022/01/15 03:06:20;;;;;;;;;;;;;;;14.60;61.06;102812.84;1057132;28;1936;-62
2022/01/15 03:07:10;;;;;;;;;;;;;;;14.60;61.10;102815.53;1054706;28;684;-62
2022/01/15 03:08:00;;;;;;;;;;;;;;;14.60;61.06;102818.19;1054956;28;718;-63
2022/01/15 03:08:51;;;;;;;;;;;;;;;14.60;61.65;102815.53;1054278;28;692;-63
2022/01/15 03:09:41;;;;;;;;;;;;;;;14.59;60.95;102811.97;1055382;28;648;-63
2022/01/15 03:10:32;;;;;;;;;;;;;;;14.61;60.77;102813.72;1053640;28;836;-63
2022/01/15 03:11:22;;;;;;;;;;;;;;;14.61;61.38;102808.34;1053588;28;737;-63
2022/01/15 03:12:13;;;;;;;;;;;;;;;14.62;60.95;102804.72;1053843;28;736;-63
2022/01/15 03:13:10;;;;;;;;;;;;;;;14.62;60.84;102805.59;1053457;28;849;-63
2022/01/15 03:14:01;;;;;;;;;;;;;;;14.62;61.39;102799.34;1053340;28;797;-63
2022/01/15 03:14:55;;;;;;;;;;;;;;;14.61;61.03;102798.47;1053306;28;751;-63
2022/01/15 03:15:45;;;;;;;;;;;;;;;14.61;61.26;102803.84;1053128;28;1139;-63
2022/01/15 03:16:36;;;;;;;;;;;;;;;14.59;61.10;102793.19;1053311;28;1290;-64
2022/01/15 03:17:26;;;;;;;;;;;;;;;14.59;61.47;102793.19;1053524;28;786;-63
2022/01/15 03:18:17;;;;;;;;;;;;;;;14.59;61.49;102793.19;1053657;28;802;-63
2022/01/15 03:19:07;;;;;;;;;;;;;;;14.60;60.91;102791.38;1053503;28;663;-63
2022/01/15 03:19:57;;;;;;;;;;;;;;;14.59;61.38;102797.69;1053461;28;1507;-63
2022/01/15 03:20:48;;;;;;;;;;;;;;;14.61;61.24;102800.28;1053808;28;745;-63
2022/01/15 03:21:38;;;;;;;;;;;;;;;14.59;61.48;102803.91;1054529;28;740;-63
2022/01/15 03:22:29;;;;;;;;;;;;;;;14.60;60.87;102799.41;1054618;28;1889;-62
2022/01/15 03:23:19;;;;;;;;;;;;;;;14.60;61.58;102802.09;1054716;28;768;-62
2022/01/15 03:24:10;;;;;;;;;;;;;;;14.61;61.42;102805.66;1054679;28;647;-62
2022/01/15 03:25:00;;;;;;;;;;;;;;;14.60;60.97;102812.84;1053981;28;882;-62
2022/01/15 03:25:50;;;;;;;;;;;;;;;14.58;61.59;102809.34;1054219;28;681;-62
2022/01/15 03:26:41;;;;;;;;;;;;;;;14.59;61.31;102800.38;1053474;28;686;-62
2022/01/15 03:27:31;;;;;;;;;;;;;;;14.59;61.29;102800.38;1053470;28;681;-62
2022/01/15 03:28:22;;;;;;;;;;;;;;;14.58;61.17;102795.94;1053748;28;937;-62
2022/01/15 03:29:12;;;;;;;;;;;;;;;14.57;61.70;102792.38;1053405;28;885;-62
2022/01/15 03:30:02;;;;;;;;;;;;;;;14.56;61.39;102779.91;1053589;28;778;-62
2022/01/15 03:30:53;;;;;;;;;;;;;;;14.56;61.17;102792.47;1053827;28;664;-62
2022/01/15 03:31:43;;;;;;;;;;;;;;;14.57;61.51;102791.53;1053423;28;1004;-63
2022/01/15 03:32:34;;;;;;;;;;;;;;;14.57;61.57;102778.09;1053720;28;709;-63
2022/01/15 03:33:24;;;;;;;;;;;;;;;14.56;61.29;102787.09;1052952;28;800;-63
2022/01/15 03:34:15;;;;;;;;;;;;;;;14.56;60.32;102787.09;1053749;28;691;-63
2022/01/15 03:35:05;;;;;;;;;;;;;;;14.57;60.95;102792.38;1053422;28;723;-63
2022/01/15 03:35:55;;;;;;;;;;;;;;;14.57;61.44;102799.56;1053521;28;769;-63
2022/01/15 03:36:46;;;;;;;;;;;;;;;14.56;61.28;102795.16;1053462;28;610;-64
2022/01/15 03:37:36;;;;;;;;;;;;;;;14.55;61.37;102788.91;1053453;28;835;-63
2022/01/15 03:38:27;;;;;;;;;;;;;;;14.56;61.22;102792.47;1054168;28;822;-63
2022/01/15 03:39:17;;;;;;;;;;;;;;;14.56;61.38;102789.78;1053464;28;619;-63
2022/01/15 03:40:07;;;;;;;;;;;;;;;14.56;60.81;102787.09;1053535;28;676;-63
2022/01/15 03:40:58;;;;;;;;;;;;;;;14.54;61.38;102784.50;1053835;28;1866;-63
2022/01/15 03:41:48;;;;;;;;;;;;;;;14.54;61.35;102775.56;1058268;28;896;-63
2022/01/15 03:42:39;;;;;;;;;;;;;;;14.52;61.22;102772.09;1057646;28;1961;-63
2022/01/15 03:43:29;;;;;;;;;;;;;;;14.49;61.19;102765.09;1057603;28;631;-63
2022/01/15 03:44:19;;;;;;;;;;;;;;;14.50;61.29;102763.28;1057802;28;757;-63
2022/01/15 03:45:10;;;;;;;;;;;;;;;14.51;60.77;102760.50;1057743;28;793;-63
2022/01/15 03:46:00;;;;;;;;;;;;;;;14.52;60.68;102764.03;1057083;28;1540;-63
2022/01/15 03:46:51;;;;;;;;;;;;;;;14.51;60.89;102765.84;1058180;28;1155;-63
2022/01/15 03:47:41;;;;;;;;;;;;;;;14.53;61.17;102768.47;1053627;28;712;-63
2022/01/15 03:48:31;;;;;;;;;;;;;;;14.52;60.71;102770.28;1054861;28;761;-63
2022/01/15 03:49:22;;;;;;;;;;;;;;;14.52;60.67;102777.47;1058477;28;1145;-61
2022/01/15 03:50:12;;;;;;;;;;;;;;;14.52;60.90;102781.00;1058147;28;944;-62
2022/01/15 03:51:03;;;;;;;;;;;;;;;14.53;60.95;102773.84;1059246;27;923;-62
2022/01/15 03:51:53;;;;;;;;;;;;;;;14.51;61.26;102776.59;1059413;27;919;-62
2022/01/15 03:52:44;;;;;;;;;;;;;;;14.51;61.46;102768.53;1058330;28;739;-62
2022/01/15 03:53:34;;;;;;;;;;;;;;;14.50;61.57;102776.69;1058184;28;752;-62
2022/01/15 03:54:24;;;;;;;;;;;;;;;14.50;60.60;102763.28;1058080;28;739;-62
2022/01/15 03:55:15;;;;;;;;;;;;;;;14.49;61.46;102761.53;1058231;28;753;-62
2022/01/15 03:56:05;;;;;;;;;;;;;;;14.50;61.36;102755.25;1058153;28;799;-62
2022/01/15 03:56:56;;;;;;;;;;;;;;;14.48;61.06;102755.31;1058299;28;637;-62
2022/01/15 03:57:46;;;;;;;;;;;;;;;14.47;60.96;102753.56;1059396;27;633;-63
2022/01/15 03:58:36;;;;;;;;;;;;;;;14.47;61.03;102752.72;1050724;28;1789;-62
2022/01/15 03:59:27;;;;;;;;;;;;;;;14.48;61.21;102754.44;1054920;28;632;-62
2022/01/15 04:00:17;;;;;;;;;;;;;;;14.49;61.17;102756.19;1055044;28;665;-61
2022/01/15 04:01:08;;;;;;;;;;;;;;;14.50;60.83;102757.91;1055138;28;726;-62
2022/01/15 04:01:58;;;;;;;;;;;;;;;14.49;60.80;102767.78;1055044;28;889;-62
2022/01/15 04:02:48;;;;;;;;;;;;;;;14.49;61.01;102764.22;1054941;28;1913;-62
2022/01/15 04:03:39;;;;;;;;;;;;;;;14.48;60.54;102758.00;1054979;28;713;-62
2022/01/15 04:04:29;;;;;;;;;;;;;;;14.48;60.56;102762.50;1055233;28;847;-63
2022/01/15 04:05:20;;;;;;;;;;;;;;;14.47;61.26;102760.75;1055210;28;700;-63
2022/01/15 04:06:10;;;;;;;;;;;;;;;14.49;60.77;102758.88;1055107;28;755;-62
2022/01/15 04:07:00;;;;;;;;;;;;;;;14.48;60.93;102754.44;1054981;28;697;-63
2022/01/15 04:07:51;;;;;;;;;;;;;;;14.48;61.14;102758.00;1055082;28;715;-63
2022/01/15 04:08:41;;;;;;;;;;;;;;;14.45;60.77;102755.47;1055002;28;704;-63
2022/01/15 04:09:32;;;;;;;;;;;;;;;14.46;61.31;102757.19;1055657;27;668;-62
2022/01/15 04:10:22;;;;;;;;;;;;;;;14.46;60.87;102750.97;1055115;28;824;-62
2022/01/15 04:11:13;;;;;;;;;;;;;;;14.46;61.01;102750.97;1054971;28;754;-63
2022/01/15 04:12:03;;;;;;;;;;;;;;;14.46;60.61;102749.16;1055468;27;818;-62
2022/01/15 04:12:53;;;;;;;;;;;;;;;14.45;61.17;102750.09;1055107;28;850;-62
2022/01/15 04:13:44;;;;;;;;;;;;;;;14.47;60.88;102747.34;1054543;28;731;-63
2022/01/15 04:14:34;;;;;;;;;;;;;;;14.47;60.73;102750.03;1055127;28;679;-61
2022/01/15 04:15:25;;;;;;;;;;;;;;;14.46;60.98;102746.47;1055059;28;787;-60
2022/01/15 04:16:16;;;;;;;;;;;;;;;14.45;60.77;102744.72;1055007;28;749;-61
2022/01/15 04:17:07;;;;;;;;;;;;;;;14.45;60.74;102746.53;1054461;28;867;-62
2022/01/15 04:17:57;;;;;;;;;;;;;;;14.45;60.81;102741.19;1054353;28;606;-62
2022/01/15 04:18:48;;;;;;;;;;;;;;;14.43;60.91;102740.38;1053944;28;637;-62
2022/01/15 04:19:40;;;;;;;;;;;;;;;14.43;61.48;102743.94;1053951;28;984;-62
2022/01/15 04:20:30;;;;;;;;;;;;;;;14.44;60.97;102739.44;1054416;28;693;-61
2022/01/15 04:21:21;;;;;;;;;;;;;;;14.45;60.69;102735.81;1054409;28;775;-62
2022/01/15 04:22:11;;;;;;;;;;;;;;;14.44;60.92;102739.44;1053867;28;688;-62
2022/01/15 04:23:02;;;;;;;;;;;;;;;14.45;60.39;102741.19;1054574;28;747;-62
2022/01/15 04:23:52;;;;;;;;;;;;;;;14.45;61.11;102744.72;1054430;28;680;-62
2022/01/15 04:24:43;;;;;;;;;;;;;;;14.47;61.32;102741.97;1054386;28;665;-62
2022/01/15 04:25:33;;;;;;;;;;;;;;;14.46;61.26;102748.28;1053959;28;823;-62
2022/01/15 04:26:25;;;;;;;;;;;;;;;14.45;60.38;102736.69;1055044;28;775;-62
2022/01/15 04:27:16;;;;;;;;;;;;;;;14.44;61.20;102742.13;1054441;28;805;-62
2022/01/15 04:28:10;;;;;;;;;;;;;;;14.43;60.61;102733.22;1054444;28;724;-62
2022/01/15 04:29:05;;;;;;;;;;;;;;;14.45;60.61;102733.13;1055203;28;723;-63
2022/01/15 04:29:56;;;;;;;;;;;;;;;14.44;60.30;102737.63;1054463;28;869;-63
2022/01/15 04:30:48;;;;;;;;;;;;;;;14.44;61.13;102731.41;1054527;28;727;-63
2022/01/15 04:31:48;;;;;;;;;;;;;;;14.44;61.08;102739.44;1054873;28;926;-63
2022/01/15 04:32:39;;;;;;;;;;;;;;;14.43;60.98;102738.56;1054393;28;720;-63
2022/01/15 04:33:29;;;;;;;;;;;;;;;14.42;61.06;102738.66;1054770;28;1794;-63
2022/01/15 04:34:20;;;;;;;;;;;;;;;14.43;60.82;102740.38;1055658;27;757;-63
2022/01/15 04:35:10;;;;;;;;;;;;;;;14.42;60.80;102741.34;1053763;28;803;-63
2022/01/15 04:36:00;;;;;;;;;;;;;;;14.43;60.99;102743.06;1053677;28;864;-63
2022/01/15 04:36:52;;;;;;;;;;;;;;;14.41;60.67;102737.78;1053911;28;756;-63
2022/01/15 04:37:48;;;;;;;;;;;;;;;14.43;60.46;102740.38;1054353;28;601;-63
2022/01/15 04:38:39;;;;;;;;;;;;;;;14.40;61.24;102740.50;1054432;28;737;-63
2022/01/15 04:39:29;;;;;;;;;;;;;;;14.39;60.46;102741.44;1054412;28;672;-63
2022/01/15 04:40:20;;;;;;;;;;;;;;;14.39;60.52;102739.63;1054239;28;877;-63
2022/01/15 04:41:10;;;;;;;;;;;;;;;14.39;61.17;102728.91;1054463;28;797;-63
2022/01/15 04:42:00;;;;;;;;;;;;;;;14.41;61.02;102736.91;1054312;28;1942;-63
2022/01/15 04:42:51;;;;;;;;;;;;;;;14.40;60.80;102733.34;1054889;28;1964;-63
2022/01/15 04:43:41;;;;;;;;;;;;;;;14.40;60.40;102730.69;1054910;28;769;-63
2022/01/15 04:44:32;;;;;;;;;;;;;;;14.41;60.53;102728.88;1055472;27;762;-63
2022/01/15 04:45:22;;;;;;;;;;;;;;;14.40;60.60;102732.47;1055066;28;693;-63
2022/01/15 04:46:13;;;;;;;;;;;;;;;14.40;60.54;102735.13;1053670;28;835;-63
2022/01/15 04:47:03;;;;;;;;;;;;;;;14.41;60.90;102734.22;1054203;28;1194;-62
2022/01/15 04:47:53;;;;;;;;;;;;;;;14.42;60.58;102733.28;1053824;28;672;-62
2022/01/15 04:48:44;;;;;;;;;;;;;;;14.39;61.19;102728.91;1054182;28;750;-61
2022/01/15 04:49:34;;;;;;;;;;;;;;;14.40;60.70;102736.03;1053505;28;1361;-62
2022/01/15 04:50:25;;;;;;;;;;;;;;;14.39;60.79;102738.75;1053657;28;743;-62
2022/01/15 04:51:15;;;;;;;;;;;;;;;14.39;61.07;102734.28;1054451;28;800;-61